createdAt,value
2022-12-29T00:00:27.628Z,66.36
2022-12-29T00:03:32.241Z,66.34
2022-12-29T00:06:37.039Z,66.20
2022-12-29T00:09:41.595Z,67.52
2022-12-29T00:13:04.897Z,68.63
2022-12-29T00:16:09.895Z,68.34
2022-12-29T00:19:33.450Z,68.13
2022-12-29T00:22:56.845Z,67.33
2022-12-29T00:26:24.078Z,65.77
2022-12-29T00:29:47.848Z,64.75
2022-12-29T00:33:10.566Z,64.38
2022-12-29T00:36:34.537Z,63.80
2022-12-29T00:39:57.685Z,62.09
2022-12-29T00:43:20.961Z,62.43
2022-12-29T00:46:25.606Z,60.42
2022-12-29T00:49:32.677Z,62.20
2022-12-29T00:52:38.593Z,59.52
2022-12-29T00:55:43.548Z,60.40
2022-12-29T00:58:48.964Z,57.50
2022-12-29T01:01:54.895Z,58.17
2022-12-29T01:04:59.488Z,58.58
2022-12-29T01:08:03.967Z,56.99
2022-12-29T01:11:14.692Z,57.28
2022-12-29T01:14:21.288Z,59.29
2022-12-29T01:17:25.620Z,59.11
2022-12-29T01:20:30.430Z,58.91
2022-12-29T01:23:35.819Z,56.95
2022-12-29T01:26:40.364Z,57.15
2022-12-29T01:29:44.936Z,55.13
2022-12-29T01:32:49.396Z,54.83
2022-12-29T01:35:54.242Z,55.38
2022-12-29T01:38:58.763Z,55.13
2022-12-29T01:42:03.216Z,54.20
2022-12-29T01:45:16.225Z,52.58
2022-12-29T01:48:22.875Z,54.53
2022-12-29T01:51:29.535Z,53.89
2022-12-29T01:54:49.727Z,51.65
2022-12-29T01:57:58.863Z,51.54
2022-12-29T02:01:03.928Z,50.95
2022-12-29T02:04:11.401Z,51.49
2022-12-29T02:07:26.954Z,53.04
2022-12-29T02:10:35.312Z,53.31
2022-12-29T02:13:40.049Z,53.06
2022-12-29T02:16:47.046Z,55.23
2022-12-29T02:20:02.063Z,52.09
2022-12-29T02:23:38.087Z,52.97
2022-12-29T02:27:46.823Z,54.89
2022-12-29T02:31:13.764Z,53.36
2022-12-29T02:34:43.085Z,53.67
2022-12-29T02:38:23.247Z,54.50
2022-12-29T02:41:52.875Z,52.62
2022-12-29T02:45:18.671Z,54.18
2022-12-29T02:49:03.913Z,52.05
2022-12-29T02:52:08.495Z,53.02
2022-12-29T02:55:14.050Z,53.45
2022-12-29T02:58:25.022Z,53.90
2022-12-29T03:02:05.090Z,54.27
2022-12-29T03:05:24.979Z,53.31
2022-12-29T03:08:52.000Z,53.24
2022-12-29T03:12:14.991Z,54.85
2022-12-29T03:15:55.093Z,52.39
2022-12-29T03:19:19.760Z,54.09
2022-12-29T03:22:30.259Z,55.95
2022-12-29T03:25:50.540Z,55.71
2022-12-29T03:28:59.289Z,54.78
2022-12-29T03:32:09.419Z,55.04
2022-12-29T03:35:21.371Z,55.00
2022-12-29T03:38:33.641Z,52.60
2022-12-29T03:41:42.444Z,55.76
2022-12-29T03:44:49.076Z,54.62
2022-12-29T03:47:56.089Z,55.29
2022-12-29T03:51:01.221Z,53.72
2022-12-29T03:54:06.098Z,52.59
2022-12-29T03:57:12.429Z,53.71
2022-12-29T04:00:37.015Z,53.06
2022-12-29T04:03:41.579Z,52.15
2022-12-29T04:06:46.225Z,54.34
2022-12-29T04:09:50.824Z,53.44
2022-12-29T04:12:59.937Z,54.01
2022-12-29T04:16:04.585Z,54.03
2022-12-29T04:19:10.706Z,54.84
2022-12-29T04:22:15.336Z,53.69
2022-12-29T04:25:19.855Z,55.45
2022-12-29T04:28:25.121Z,55.16
2022-12-29T04:31:47.384Z,54.72
2022-12-29T04:34:52.180Z,55.32
2022-12-29T04:37:58.501Z,54.30
2022-12-29T04:41:04.394Z,54.52
2022-12-29T04:44:10.019Z,52.82
2022-12-29T04:47:35.537Z,53.60
2022-12-29T04:51:18.182Z,55.99
2022-12-29T04:54:23.427Z,55.61
2022-12-29T04:57:35.967Z,54.70
2022-12-29T05:00:40.388Z,55.20
2022-12-29T05:03:45.129Z,54.34
2022-12-29T05:06:50.373Z,55.35
2022-12-29T05:09:55.650Z,53.02
2022-12-29T05:13:00.833Z,54.53
2022-12-29T05:16:05.578Z,53.76
2022-12-29T05:19:10.264Z,55.12
2022-12-29T05:22:16.404Z,53.90
2022-12-29T05:25:23.561Z,54.05
2022-12-29T05:28:39.425Z,55.08
2022-12-29T05:31:50.856Z,55.26
2022-12-29T05:34:55.390Z,53.42
2022-12-29T05:38:00.745Z,54.28
2022-12-29T05:41:05.334Z,55.35
2022-12-29T05:44:28.148Z,55.23
2022-12-29T05:47:50.823Z,57.60
2022-12-29T05:51:12.831Z,58.36
2022-12-29T05:54:29.103Z,57.65
2022-12-29T05:57:34.251Z,57.17
2022-12-29T06:00:47.808Z,58.43
2022-12-29T06:03:52.320Z,58.46
2022-12-29T06:06:58.266Z,57.60
2022-12-29T06:10:13.090Z,56.88
2022-12-29T06:13:24.590Z,58.00
2022-12-29T06:16:29.197Z,59.32
2022-12-29T06:19:37.432Z,58.47
2022-12-29T06:22:42.210Z,57.10
2022-12-29T06:25:48.944Z,57.08
2022-12-29T06:28:53.614Z,57.45
2022-12-29T06:32:00.983Z,57.98
2022-12-29T06:35:08.920Z,56.00
2022-12-29T06:38:19.679Z,58.22
2022-12-29T06:41:28.444Z,57.03
2022-12-29T06:45:02.482Z,57.56
2022-12-29T06:48:07.898Z,57.76
2022-12-29T06:51:12.643Z,57.63
2022-12-29T06:54:17.532Z,57.93
2022-12-29T06:57:22.268Z,58.83
2022-12-29T07:00:27.664Z,58.82
2022-12-29T07:03:32.242Z,59.77
2022-12-29T07:06:37.117Z,59.53
2022-12-29T07:09:41.596Z,59.61
2022-12-29T07:12:46.111Z,60.92
2022-12-29T07:15:51.038Z,59.42
2022-12-29T07:18:55.368Z,60.13
2022-12-29T07:22:00.090Z,60.76
2022-12-29T07:25:05.192Z,60.69
2022-12-29T07:28:09.880Z,61.14
2022-12-29T07:31:20.246Z,61.20
2022-12-29T07:34:27.326Z,62.28
2022-12-29T07:37:32.180Z,61.45
2022-12-29T07:40:36.698Z,61.11
2022-12-29T07:43:41.309Z,61.30
2022-12-29T07:47:12.830Z,61.15
2022-12-29T07:50:17.208Z,61.36
2022-12-29T07:53:22.102Z,60.76
2022-12-29T07:56:26.608Z,61.29
2022-12-29T07:59:32.166Z,61.18
2022-12-29T08:02:36.863Z,61.63
2022-12-29T08:05:41.627Z,61.81
2022-12-29T08:08:46.192Z,60.84
2022-12-29T08:11:50.844Z,61.54
2022-12-29T08:14:55.593Z,61.16
2022-12-29T08:18:00.072Z,61.39
2022-12-29T08:21:05.929Z,60.18
2022-12-29T08:24:11.333Z,60.36
2022-12-29T08:27:20.379Z,60.78
2022-12-29T08:30:25.543Z,61.05
2022-12-29T08:33:30.397Z,60.81
2022-12-29T08:36:34.893Z,60.88
2022-12-29T08:39:39.326Z,60.85
2022-12-29T08:42:43.795Z,60.61
2022-12-29T08:45:48.515Z,60.76
2022-12-29T08:48:53.155Z,59.85
2022-12-29T08:51:57.722Z,60.30
2022-12-29T08:55:02.155Z,59.59
2022-12-29T08:58:08.308Z,58.99
2022-12-29T09:01:16.257Z,58.26
2022-12-29T09:04:22.560Z,57.92
2022-12-29T09:07:27.401Z,58.47
2022-12-29T09:10:31.699Z,57.98
2022-12-29T09:13:36.986Z,58.08
2022-12-29T09:17:00.535Z,58.12
2022-12-29T09:20:06.086Z,57.91
2022-12-29T09:23:10.349Z,58.37
2022-12-29T09:26:14.845Z,59.17
2022-12-29T09:29:19.559Z,59.18
2022-12-29T09:32:26.456Z,58.99
2022-12-29T09:35:33.092Z,58.73
2022-12-29T09:38:41.174Z,59.19
2022-12-29T09:41:55.577Z,59.39
2022-12-29T09:45:19.476Z,60.01
2022-12-29T09:48:32.634Z,60.82
2022-12-29T09:51:40.770Z,60.61
2022-12-29T09:55:13.872Z,60.95
2022-12-29T09:59:01.259Z,60.53
2022-12-29T10:02:42.145Z,60.76
2022-12-29T10:06:27.734Z,60.19
2022-12-29T10:10:04.596Z,60.58
2022-12-29T10:13:53.456Z,60.79
2022-12-29T10:17:16.556Z,60.50
2022-12-29T10:20:29.864Z,61.08
2022-12-29T10:23:52.885Z,60.94
2022-12-29T10:27:02.109Z,61.06
2022-12-29T10:30:07.307Z,61.29
2022-12-29T10:33:20.927Z,61.28
2022-12-29T10:36:44.256Z,60.68
2022-12-29T10:39:57.473Z,60.49
2022-12-29T10:43:04.424Z,60.14
2022-12-29T10:46:21.920Z,60.78
2022-12-29T10:49:28.980Z,60.74
2022-12-29T10:52:35.878Z,60.93
2022-12-29T10:55:44.980Z,60.28
2022-12-29T10:58:52.501Z,60.20
2022-12-29T11:02:21.966Z,60.34
2022-12-29T11:05:54.734Z,59.08
2022-12-29T11:09:12.453Z,59.13
2022-12-29T11:12:35.820Z,58.14
2022-12-29T11:15:43.467Z,58.76
2022-12-29T11:18:49.101Z,57.72
2022-12-29T11:21:54.679Z,57.19
2022-12-29T11:25:12.809Z,59.53
2022-12-29T11:28:19.017Z,59.24
2022-12-29T11:31:24.719Z,60.21
2022-12-29T11:34:37.881Z,59.79
2022-12-29T11:37:44.188Z,60.65
2022-12-29T11:40:49.419Z,60.17
2022-12-29T11:43:56.579Z,59.46
2022-12-29T11:47:01.297Z,59.68
2022-12-29T11:50:10.182Z,58.97
2022-12-29T11:53:34.987Z,57.96
2022-12-29T11:56:43.776Z,58.23
2022-12-29T11:59:57.789Z,58.57
2022-12-29T12:03:25.740Z,58.17
2022-12-29T12:06:34.914Z,57.89
2022-12-29T12:09:45.526Z,57.39
2022-12-29T12:13:16.888Z,57.81
2022-12-29T12:16:27.092Z,60.08
2022-12-29T12:20:14.266Z,59.45
2022-12-29T12:23:44.185Z,59.18
2022-12-29T12:27:00.874Z,58.36
2022-12-29T12:30:12.883Z,58.64
2022-12-29T12:33:43.966Z,59.46
2022-12-29T12:36:51.227Z,60.11
2022-12-29T12:40:17.852Z,59.87
2022-12-29T12:43:46.093Z,58.84
2022-12-29T12:47:11.536Z,59.63
2022-12-29T12:50:15.972Z,58.94
2022-12-29T12:53:44.441Z,58.72
2022-12-29T12:56:55.273Z,59.09
2022-12-29T13:00:13.972Z,59.65
2022-12-29T13:03:45.852Z,59.47
2022-12-29T13:06:57.093Z,59.05
2022-12-29T13:10:21.356Z,59.15
2022-12-29T13:13:50.782Z,60.07
2022-12-29T13:17:04.382Z,60.05
2022-12-29T13:20:27.155Z,60.91
2022-12-29T13:23:47.210Z,61.90
2022-12-29T13:27:09.887Z,61.51
2022-12-29T13:30:25.480Z,62.00
2022-12-29T13:34:10.768Z,61.81
2022-12-29T13:37:20.132Z,61.90
2022-12-29T13:40:28.857Z,62.50
2022-12-29T13:43:41.678Z,61.58
2022-12-29T13:46:48.551Z,60.15
2022-12-29T13:49:54.190Z,60.58
2022-12-29T13:53:20.321Z,61.55
2022-12-29T13:56:34.325Z,60.93
2022-12-29T14:00:02.020Z,60.32
2022-12-29T14:03:31.801Z,60.92
2022-12-29T14:06:42.237Z,60.88
2022-12-29T14:09:54.489Z,60.30
2022-12-29T14:13:13.660Z,61.00
2022-12-29T14:16:37.323Z,60.17
2022-12-29T14:19:45.706Z,61.78
2022-12-29T14:23:17.973Z,62.29
2022-12-29T14:26:34.056Z,61.54
2022-12-29T14:29:41.608Z,61.24
2022-12-29T14:33:04.559Z,60.71
2022-12-29T14:36:47.820Z,61.47
2022-12-29T14:40:26.908Z,62.40
2022-12-29T14:43:31.445Z,62.59
2022-12-29T14:47:10.745Z,60.62
2022-12-29T14:50:21.026Z,61.05
2022-12-29T14:53:49.042Z,61.43
2022-12-29T14:56:54.137Z,62.03
2022-12-29T15:00:04.114Z,62.30
2022-12-29T15:03:42.887Z,62.52
2022-12-29T15:06:48.191Z,61.77
2022-12-29T15:10:21.825Z,61.83
2022-12-29T15:13:39.127Z,62.29
2022-12-29T15:16:44.044Z,61.81
2022-12-29T15:19:48.718Z,62.38
2022-12-29T15:23:02.972Z,63.03
2022-12-29T15:26:09.992Z,63.07
2022-12-29T15:29:34.400Z,64.31
2022-12-29T15:32:46.110Z,63.11
2022-12-29T15:35:56.003Z,63.05
2022-12-29T15:39:00.807Z,64.59
2022-12-29T15:42:18.538Z,63.17
2022-12-29T15:45:25.926Z,63.90
2022-12-29T15:48:31.643Z,66.23
2022-12-29T15:51:41.530Z,65.17
2022-12-29T15:54:46.159Z,64.79
2022-12-29T15:57:51.547Z,64.70
2022-12-29T16:01:05.401Z,63.28
2022-12-29T16:04:11.404Z,62.72
2022-12-29T16:07:41.896Z,62.17
2022-12-29T16:10:46.874Z,61.92
2022-12-29T16:13:53.199Z,62.53
2022-12-29T16:17:01.775Z,62.50
2022-12-29T16:20:20.247Z,62.70
2022-12-29T16:23:29.352Z,62.92
2022-12-29T16:26:34.229Z,62.76
2022-12-29T16:29:39.290Z,62.84
2022-12-29T16:32:49.683Z,62.00
2022-12-29T16:35:54.309Z,63.91
2022-12-29T16:39:23.594Z,64.08
2022-12-29T16:42:43.353Z,62.82
2022-12-29T16:45:55.156Z,61.56
2022-12-29T16:49:00.317Z,63.50
2022-12-29T16:52:13.635Z,63.28
2022-12-29T16:55:20.630Z,63.80
2022-12-29T16:58:31.039Z,62.77
2022-12-29T17:01:39.497Z,61.25
2022-12-29T17:04:44.061Z,62.95
2022-12-29T17:07:48.959Z,63.13
2022-12-29T17:11:17.398Z,62.37
2022-12-29T17:14:40.287Z,61.60
2022-12-29T17:17:49.730Z,62.20
2022-12-29T17:20:54.235Z,61.40
2022-12-29T17:23:58.940Z,60.74
2022-12-29T17:27:03.636Z,60.99
2022-12-29T17:30:13.388Z,62.54
2022-12-29T17:33:22.545Z,61.87
2022-12-29T17:36:27.261Z,60.38
2022-12-29T17:39:32.043Z,62.29
2022-12-29T17:42:41.844Z,62.08
2022-12-29T17:45:50.796Z,61.68
2022-12-29T17:48:56.160Z,61.92
2022-12-29T17:52:00.600Z,61.22
2022-12-29T17:55:05.384Z,62.23
2022-12-29T17:58:24.592Z,62.22
2022-12-29T18:01:35.348Z,61.93
2022-12-29T18:04:40.733Z,61.14
2022-12-29T18:07:45.363Z,60.65
2022-12-29T18:10:52.243Z,60.52
2022-12-29T18:13:57.520Z,61.70
2022-12-29T18:17:01.931Z,61.38
2022-12-29T18:20:06.945Z,61.45
2022-12-29T18:23:28.091Z,62.33
2022-12-29T18:26:33.661Z,62.38
2022-12-29T18:29:37.935Z,61.27
2022-12-29T18:32:42.500Z,60.92
2022-12-29T18:35:53.434Z,62.04
2022-12-29T18:38:58.079Z,61.02
2022-12-29T18:42:02.539Z,61.47
2022-12-29T18:45:25.134Z,61.76
2022-12-29T18:48:30.102Z,62.48
2022-12-29T18:51:34.397Z,62.52
2022-12-29T18:54:38.863Z,62.77
2022-12-29T18:57:43.209Z,62.76
2022-12-29T19:00:47.917Z,62.09
2022-12-29T19:03:53.246Z,62.17
2022-12-29T19:06:58.304Z,62.50
2022-12-29T19:10:02.804Z,62.24
2022-12-29T19:13:08.185Z,61.09
2022-12-29T19:16:21.607Z,61.94
2022-12-29T19:19:26.235Z,62.97
2022-12-29T19:22:30.669Z,63.13
2022-12-29T19:25:35.336Z,62.38
2022-12-29T19:28:39.814Z,62.49
2022-12-29T19:31:44.525Z,62.68
2022-12-29T19:34:49.674Z,62.99
2022-12-29T19:37:54.398Z,63.23
2022-12-29T19:40:59.263Z,63.43
2022-12-29T19:44:03.852Z,61.92
2022-12-29T19:47:08.267Z,61.99
2022-12-29T19:50:16.866Z,61.23
2022-12-29T19:53:21.836Z,61.19
2022-12-29T19:56:26.696Z,61.67
2022-12-29T19:59:31.370Z,59.74
2022-12-29T20:02:38.545Z,60.90
2022-12-29T20:05:42.786Z,63.28
2022-12-29T20:08:47.393Z,62.91
2022-12-29T20:11:51.773Z,62.10
2022-12-29T20:14:57.488Z,61.34
2022-12-29T20:18:17.568Z,61.05
2022-12-29T20:21:25.047Z,60.55
2022-12-29T20:24:31.117Z,61.29
2022-12-29T20:27:35.821Z,61.15
2022-12-29T20:30:40.215Z,62.27
2022-12-29T20:33:44.748Z,60.95
2022-12-29T20:36:50.259Z,62.62
2022-12-29T20:39:55.093Z,60.67
2022-12-29T20:42:59.459Z,62.01
2022-12-29T20:46:04.197Z,61.68
2022-12-29T20:49:08.841Z,61.30
2022-12-29T20:52:13.365Z,60.64
2022-12-29T20:55:17.854Z,59.42
2022-12-29T20:58:24.133Z,60.85
2022-12-29T21:01:29.336Z,62.66
2022-12-29T21:04:57.660Z,62.17
2022-12-29T21:08:00.412Z,62.01
2022-12-29T21:11:05.873Z,61.09
2022-12-29T21:14:10.506Z,60.54
2022-12-29T21:17:14.828Z,60.41
2022-12-29T21:20:21.897Z,59.89
2022-12-29T21:23:27.871Z,60.33
2022-12-29T21:26:33.793Z,60.17
2022-12-29T21:29:38.162Z,59.98
2022-12-29T21:32:42.737Z,58.53
2022-12-29T21:35:49.265Z,59.92
2022-12-29T21:38:54.432Z,59.24
2022-12-29T21:42:00.842Z,58.44
2022-12-29T21:45:24.396Z,58.34
2022-12-29T21:48:31.013Z,59.17
2022-12-29T21:51:50.895Z,58.69
2022-12-29T21:55:01.903Z,60.04
2022-12-29T21:58:26.064Z,59.06
2022-12-29T22:01:50.501Z,59.54
2022-12-29T22:05:13.209Z,59.72
2022-12-29T22:08:36.274Z,59.79
2022-12-29T22:11:59.690Z,59.13
2022-12-29T22:15:04.684Z,60.66
2022-12-29T22:18:09.464Z,59.28
2022-12-29T22:21:14.464Z,59.58
2022-12-29T22:24:19.095Z,59.66
2022-12-29T22:27:23.727Z,59.46
2022-12-29T22:30:29.661Z,60.38
2022-12-29T22:33:34.697Z,60.92
2022-12-29T22:36:39.622Z,60.67
2022-12-29T22:39:44.404Z,59.75
2022-12-29T22:42:48.733Z,60.38
2022-12-29T22:45:53.214Z,60.72
2022-12-29T22:49:00.596Z,59.90
2022-12-29T22:52:06.319Z,59.41
2022-12-29T22:55:11.370Z,58.50
2022-12-29T22:58:16.714Z,58.68
2022-12-29T23:01:24.367Z,59.61
2022-12-29T23:05:02.259Z,60.58
2022-12-29T23:07:53.045Z,59.25
2022-12-29T23:10:57.607Z,59.00
2022-12-29T23:14:02.165Z,59.91
2022-12-29T23:17:06.465Z,59.83
2022-12-29T23:20:11.717Z,58.99
2022-12-29T23:23:16.090Z,59.67
2022-12-29T23:26:28.406Z,59.64
2022-12-29T23:29:32.954Z,59.12
2022-12-29T23:32:37.327Z,60.25
2022-12-29T23:35:41.783Z,58.37
2022-12-29T23:38:46.440Z,59.17
2022-12-29T23:41:51.655Z,59.45
2022-12-29T23:44:56.321Z,60.41
2022-12-29T23:48:00.538Z,59.77
2022-12-29T23:51:08.799Z,61.11
2022-12-29T23:54:13.304Z,58.99
2022-12-29T23:57:17.748Z,60.77
